Time;durP1;ratioP1;P1;durP2;ratioP2;P2;SDS_P1;SDS_P2;PMS_P1;PMS_P2;Temp;Humidity;BMP_temperature;BMP_pressure;BME280_temperature;BME280_humidity;BME280_pressure;Samples;Min_cycle;Max_cycle;Signal;HPM_P1;HPM_P2
2023/02/04 00:00:58;;;;;;;0.30;0.20;;;6.50;99.90;;;;;;5075075;28;20479;-84
2023/02/04 00:03:25;;;;;;;0.40;0.30;;;6.40;99.90;;;;;;5075841;28;20961;-84
2023/02/04 00:05:52;;;;;;;2.20;0.70;;;6.40;99.90;;;;;;5075751;28;20985;-84
2023/02/04 00:08:18;;;;;;;0.83;0.83;;;6.40;99.90;;;;;;5076074;28;20453;-84
2023/02/04 00:10:46;;;;;;;0.30;0.20;;;6.50;99.90;;;;;;5076607;28;20499;-84
2023/02/04 00:13:13;;;;;;;0.30;0.20;;;6.50;99.90;;;;;;5075969;28;20483;-84
2023/02/04 00:15:40;;;;;;;0.30;0.20;;;6.50;99.90;;;;;;5075784;28;20493;-84
2023/02/04 00:18:08;;;;;;;0.40;0.40;;;6.50;99.90;;;;;;5075896;28;20446;-84
2023/02/04 00:20:35;;;;;;;0.30;0.30;;;6.40;99.90;;;;;;5075517;28;20511;-84
2023/02/04 00:23:01;;;;;;;0.47;0.40;;;6.50;99.90;;;;;;5075523;28;20503;-84
2023/02/04 00:25:28;;;;;;;0.63;0.30;;;6.50;99.90;;;;;;5075392;28;20442;-84
2023/02/04 00:27:56;;;;;;;0.30;0.30;;;6.40;99.90;;;;;;5075714;28;20449;-84
2023/02/04 00:30:23;;;;;;;0.30;0.30;;;6.40;99.90;;;;;;5075781;28;20446;-84
2023/02/04 00:32:53;;;;;;;0.30;0.30;;;6.40;99.90;;;;;;5075684;28;20445;-84
2023/02/04 00:35:20;;;;;;;0.40;0.30;;;6.40;99.90;;;;;;5075291;28;20489;-84
2023/02/04 00:37:46;;;;;;;0.40;0.30;;;6.40;99.90;;;;;;5075279;28;20941;-84
2023/02/04 00:40:13;;;;;;;0.30;0.30;;;6.40;99.90;;;;;;5076077;28;20453;-84
2023/02/04 00:42:40;;;;;;;0.30;0.30;;;6.40;99.90;;;;;;5075483;28;20445;-84
2023/02/04 00:45:09;;;;;;;0.30;0.30;;;6.40;99.90;;;;;;5075420;28;20858;-84
2023/02/04 00:47:36;;;;;;;0.97;0.40;;;6.30;99.90;;;;;;5075370;28;20457;-84
2023/02/04 00:50:02;;;;;;;0.30;0.20;;;6.30;99.90;;;;;;5075310;28;20445;-84
2023/02/04 00:52:29;;;;;;;0.30;0.20;;;6.30;99.90;;;;;;5075311;28;20502;-84
2023/02/04 00:54:56;;;;;;;0.30;0.20;;;6.30;99.90;;;;;;5074968;28;20937;-84
2023/02/04 00:57:22;;;;;;;0.30;0.30;;;6.30;99.90;;;;;;5075044;28;20863;-84
2023/02/04 00:59:49;;;;;;;0.30;0.30;;;6.30;99.90;;;;;;5075133;28;20445;-84
2023/02/04 01:02:17;;;;;;;0.30;0.30;;;6.30;99.90;;;;;;5075054;28;20457;-84
2023/02/04 01:04:44;;;;;;;0.40;0.40;;;6.30;99.90;;;;;;5074961;28;20457;-84
2023/02/04 01:07:10;;;;;;;0.30;0.20;;;6.40;99.90;;;;;;5074888;28;20523;-84
2023/02/04 01:09:37;;;;;;;0.30;0.30;;;6.30;99.90;;;;;;5074952;28;20441;-84
2023/02/04 01:12:04;;;;;;;0.67;0.27;;;6.30;99.90;;;;;;5074464;28;20851;-84
2023/02/04 01:14:31;;;;;;;0.30;0.20;;;6.40;99.90;;;;;;5074553;28;20475;-84
2023/02/04 01:16:58;;;;;;;0.60;0.60;;;6.40;99.90;;;;;;5074322;28;20477;-84
2023/02/04 01:19:26;;;;;;;0.30;0.20;;;6.40;99.90;;;;;;5074715;28;20540;-84
2023/02/04 01:21:52;;;;;;;0.30;0.30;;;6.40;99.90;;;;;;5074651;28;20442;-84
2023/02/04 01:24:19;;;;;;;0.40;0.37;;;6.30;99.90;;;;;;5074650;28;20461;-84
2023/02/04 01:26:46;;;;;;;0.30;0.20;;;6.30;99.90;;;;;;5074525;28;20462;-84
2023/02/04 01:29:12;;;;;;;0.30;0.20;;;6.30;99.90;;;;;;5074546;28;20525;-84
2023/02/04 01:31:39;;;;;;;0.30;0.30;;;6.40;99.90;;;;;;5074441;28;20454;-84
2023/02/04 01:34:06;;;;;;;0.50;0.30;;;6.40;99.90;;;;;;5074435;28;20502;-84
2023/02/04 01:36:34;;;;;;;0.30;0.20;;;6.30;99.90;;;;;;5073818;28;20489;-84
2023/02/04 01:39:02;;;;;;;0.90;0.60;;;6.30;99.90;;;;;;5074314;28;20454;-84
2023/02/04 01:41:28;;;;;;;0.40;0.30;;;6.40;99.90;;;;;;5073988;28;20937;-84
2023/02/04 01:43:55;;;;;;;0.30;0.30;;;6.40;99.90;;;;;;5074242;28;20437;-83
2023/02/04 01:46:23;;;;;;;0.30;0.20;;;6.40;99.90;;;;;;5074098;28;20469;-84
2023/02/04 01:48:49;;;;;;;0.53;0.33;;;6.40;99.90;;;;;;5074120;28;20489;-84
2023/02/04 01:51:30;;;;;;;0.30;0.30;;;6.40;99.90;;;;;;5074611;28;20844;-84
2023/02/04 01:53:59;;;;;;;0.30;0.20;;;6.40;99.90;;;;;;5074048;28;20433;-84
2023/02/04 01:56:27;;;;;;;0.30;0.20;;;6.40;99.90;;;;;;5073844;28;20492;-84
2023/02/04 01:58:55;;;;;;;1.63;0.40;;;6.40;99.90;;;;;;5073948;28;20523;-84
2023/02/04 02:01:37;;;;;;;0.30;0.30;;;6.40;99.90;;;;;;5074456;28;20452;-84
2023/02/04 02:04:04;;;;;;;0.30;0.20;;;6.40;99.90;;;;;;5073857;28;20503;-84
2023/02/04 02:06:31;;;;;;;0.30;0.20;;;6.40;99.90;;;;;;5073720;28;20472;-84
2023/02/04 02:09:00;;;;;;;0.30;0.20;;;6.40;99.90;;;;;;5073766;28;20449;-84
2023/02/04 02:11:27;;;;;;;0.30;0.20;;;6.40;99.90;;;;;;5073731;28;20445;-84
2023/02/04 02:13:54;;;;;;;0.43;0.30;;;6.40;99.90;;;;;;5073734;28;20449;-84
2023/02/04 02:16:21;;;;;;;0.30;0.30;;;6.40;99.90;;;;;;5073540;28;20511;-84
2023/02/04 02:18:49;;;;;;;0.37;0.30;;;6.40;99.90;;;;;;5073644;28;20449;-84
2023/02/04 02:21:21;;;;;;;0.30;0.30;;;6.40;99.90;;;;;;5073591;28;20864;-83
2023/02/04 02:23:52;;;;;;;0.40;0.40;;;6.40;99.90;;;;;;5072897;28;20434;-84
2023/02/04 02:26:21;;;;;;;0.30;0.30;;;6.50;99.90;;;;;;5073198;28;20462;-84
2023/02/04 02:28:48;;;;;;;0.30;0.30;;;6.50;99.90;;;;;;5073562;28;20449;-84
2023/02/04 02:31:16;;;;;;;0.30;0.20;;;6.50;99.90;;;;;;5073517;28;20453;-84
2023/02/04 02:33:42;;;;;;;0.30;0.20;;;6.40;99.90;;;;;;5073237;28;20440;-84
2023/02/04 02:36:09;;;;;;;0.30;0.20;;;6.30;99.90;;;;;;5072865;28;20500;-84
2023/02/04 02:38:37;;;;;;;0.30;0.27;;;6.20;99.90;;;;;;5073112;28;20453;-84
2023/02/04 02:41:07;;;;;;;0.30;0.30;;;6.20;99.90;;;;;;5073431;28;20448;-84
2023/02/04 02:43:36;;;;;;;0.30;0.30;;;6.20;99.90;;;;;;5073819;28;20508;-84
2023/02/04 02:46:03;;;;;;;0.60;0.60;;;6.10;99.90;;;;;;5073313;28;20832;-84
2023/02/04 02:48:30;;;;;;;0.30;0.20;;;6.10;99.90;;;;;;5073424;28;20456;-84
2023/02/04 02:50:56;;;;;;;0.30;0.20;;;6.20;99.90;;;;;;5073319;28;20449;-84
2023/02/04 02:53:23;;;;;;;0.30;0.30;;;6.10;99.90;;;;;;5073315;28;20476;-84
2023/02/04 02:55:51;;;;;;;0.30;0.23;;;6.10;99.90;;;;;;5073157;28;20836;-84
2023/02/04 02:58:24;;;;;;;0.30;0.30;;;6.00;99.90;;;;;;5073203;28;20453;-84
2023/02/04 03:00:51;;;;;;;0.30;0.30;;;6.00;99.90;;;;;;5073272;28;20437;-84
2023/02/04 03:03:22;;;;;;;0.30;0.20;;;6.00;99.90;;;;;;5072932;28;20441;-84
2023/02/04 03:05:51;;;;;;;0.30;0.20;;;6.00;99.90;;;;;;5073167;28;20530;-84
2023/02/04 03:08:19;;;;;;;0.30;0.30;;;6.00;99.90;;;;;;5073125;28;20449;-84
2023/02/04 03:10:47;;;;;;;0.40;0.30;;;6.00;99.90;;;;;;5073103;28;20453;-84
2023/02/04 03:13:15;;;;;;;0.30;0.20;;;6.00;99.90;;;;;;5073088;28;20445;-84
2023/02/04 03:15:46;;;;;;;0.40;0.30;;;6.00;99.90;;;;;;5073047;28;20996;-84
2023/02/04 03:18:14;;;;;;;0.30;0.20;;;6.00;99.90;;;;;;5073005;28;20557;-84
2023/02/04 03:20:41;;;;;;;0.30;0.30;;;6.00;99.90;;;;;;5072692;28;20449;-84
2023/02/04 03:23:08;;;;;;;0.30;0.20;;;6.00;99.90;;;;;;5072955;28;20445;-84
2023/02/04 03:25:34;;;;;;;0.30;0.30;;;6.10;99.90;;;;;;5072976;28;20478;-84
2023/02/04 03:28:01;;;;;;;0.30;0.20;;;6.10;99.90;;;;;;5072946;28;20446;-84
2023/02/04 03:30:28;;;;;;;0.37;0.30;;;6.00;99.90;;;;;;5072973;28;20847;-84
2023/02/04 03:32:56;;;;;;;0.30;0.20;;;6.00;99.90;;;;;;5072882;28;20869;-84
2023/02/04 03:35:22;;;;;;;2.40;0.40;;;6.00;99.90;;;;;;5073912;28;20878;-84
2023/02/04 03:37:49;;;;;;;0.30;0.20;;;6.00;99.90;;;;;;5076589;28;20472;-84
2023/02/04 03:40:16;;;;;;;0.30;0.20;;;6.00;99.90;;;;;;5076577;28;20813;-84
2023/02/04 03:42:43;;;;;;;0.40;0.40;;;6.00;99.90;;;;;;5076567;28;20445;-84
2023/02/04 03:45:10;;;;;;;0.50;0.30;;;6.00;99.90;;;;;;5076411;28;20785;-84
2023/02/04 03:47:36;;;;;;;0.40;0.30;;;6.10;99.90;;;;;;5076187;28;20448;-83
2023/02/04 03:50:05;;;;;;;0.30;0.20;;;6.00;99.90;;;;;;5076113;28;20801;-84
2023/02/04 03:52:32;;;;;;;0.40;0.30;;;6.10;99.90;;;;;;5076383;28;20449;-83
2023/02/04 03:54:58;;;;;;;0.30;0.30;;;6.10;99.90;;;;;;5076309;28;20452;-83
2023/02/04 03:57:25;;;;;;;0.30;0.20;;;6.10;99.90;;;;;;5076152;28;20488;-83
2023/02/04 03:59:52;;;;;;;0.40;0.30;;;6.20;99.90;;;;;;5076220;28;20460;-83
2023/02/04 04:02:18;;;;;;;0.40;0.37;;;6.10;99.90;;;;;;5076232;28;20454;-83
2023/02/04 04:04:45;;;;;;;0.40;0.40;;;6.10;99.90;;;;;;5075887;28;20449;-83
2023/02/04 04:07:13;;;;;;;1.97;0.73;;;6.00;99.90;;;;;;5076035;28;20523;-83
2023/02/04 04:09:40;;;;;;;0.40;0.30;;;5.90;99.90;;;;;;5075751;28;20941;-83
2023/02/04 04:12:06;;;;;;;0.30;0.20;;;5.90;99.90;;;;;;5075959;28;20449;-83
2023/02/04 04:14:33;;;;;;;0.63;0.63;;;5.90;99.90;;;;;;5076009;28;20453;-83
2023/02/04 04:17:00;;;;;;;0.30;0.20;;;5.80;99.90;;;;;;5075801;28;20492;-83
2023/02/04 04:19:26;;;;;;;0.40;0.30;;;5.80;99.90;;;;;;5075915;28;20468;-83
2023/02/04 04:21:53;;;;;;;0.30;0.20;;;5.70;99.90;;;;;;5075917;28;20490;-83
2023/02/04 04:24:21;;;;;;;0.40;0.30;;;5.70;99.90;;;;;;5075826;28;20491;-83
2023/02/04 04:26:48;;;;;;;0.30;0.27;;;5.70;99.90;;;;;;5075727;28;20461;-83
2023/02/04 04:29:14;;;;;;;0.30;0.30;;;5.70;99.90;;;;;;5075750;28;20492;-83
2023/02/04 04:31:41;;;;;;;0.30;0.30;;;5.60;99.90;;;;;;5075779;28;20833;-84
2023/02/04 04:34:07;;;;;;;0.30;0.20;;;5.60;99.90;;;;;;5075646;28;20853;-83
2023/02/04 04:36:34;;;;;;;1.03;0.50;;;5.60;99.90;;;;;;5074986;28;20897;-84
2023/02/04 04:39:01;;;;;;;0.30;0.30;;;5.60;99.90;;;;;;5075508;28;20453;-84
2023/02/04 04:41:29;;;;;;;0.40;0.40;;;5.60;99.90;;;;;;5075547;28;20445;-84
2023/02/04 04:43:55;;;;;;;0.53;0.40;;;5.50;99.90;;;;;;5075486;28;20449;-84
2023/02/04 04:46:22;;;;;;;0.30;0.27;;;5.50;99.90;;;;;;5074872;28;20465;-84
2023/02/04 04:48:49;;;;;;;3.90;0.50;;;5.50;99.90;;;;;;5075378;28;20449;-84
2023/02/04 04:51:15;;;;;;;1.37;0.50;;;5.60;99.90;;;;;;5075285;28;20446;-84
2023/02/04 04:53:42;;;;;;;1.07;0.30;;;5.60;99.90;;;;;;5075225;28;20479;-84
2023/02/04 04:56:09;;;;;;;0.47;0.40;;;5.50;99.90;;;;;;5075137;28;20526;-84
2023/02/04 04:58:37;;;;;;;1.00;0.40;;;5.50;99.90;;;;;;5074805;28;20492;-84
2023/02/04 05:01:03;;;;;;;0.50;0.30;;;5.50;99.90;;;;;;5075110;28;20441;-84
2023/02/04 05:03:30;;;;;;;0.53;0.53;;;5.50;99.90;;;;;;5075029;28;20817;-84
2023/02/04 05:05:57;;;;;;;0.30;0.30;;;5.50;99.90;;;;;;5074958;28;20813;-84
2023/02/04 05:08:23;;;;;;;0.40;0.30;;;5.50;99.90;;;;;;5075017;28;20460;-84
2023/02/04 05:10:50;;;;;;;1.00;0.30;;;5.50;99.90;;;;;;5074931;28;20442;-84
2023/02/04 05:13:17;;;;;;;0.33;0.30;;;5.50;99.90;;;;;;5074594;28;20449;-84
2023/02/04 05:15:45;;;;;;;0.30;0.27;;;5.50;99.90;;;;;;5074759;28;20893;-84
2023/02/04 05:18:11;;;;;;;0.30;0.30;;;5.50;99.90;;;;;;5074708;28;20523;-84
2023/02/04 05:20:38;;;;;;;0.80;0.40;;;5.50;99.90;;;;;;5074686;28;20445;-84
2023/02/04 05:23:05;;;;;;;0.30;0.30;;;5.50;99.90;;;;;;5074662;28;20457;-84
2023/02/04 05:25:31;;;;;;;3.47;0.30;;;5.50;99.90;;;;;;5074599;28;20461;-84
2023/02/04 05:27:58;;;;;;;0.30;0.20;;;5.60;99.90;;;;;;5074576;28;20491;-84
2023/02/04 05:30:25;;;;;;;0.40;0.40;;;5.50;99.90;;;;;;5074213;28;20453;-84
2023/02/04 05:32:53;;;;;;;0.30;0.30;;;5.60;99.90;;;;;;5074503;28;20433;-84
2023/02/04 05:35:20;;;;;;;0.30;0.30;;;5.50;99.90;;;;;;5074063;28;20851;-84
2023/02/04 05:37:46;;;;;;;0.30;0.30;;;5.50;99.90;;;;;;5074310;28;20543;-84
2023/02/04 05:40:14;;;;;;;0.40;0.33;;;5.50;99.90;;;;;;5074289;28;20448;-84
2023/02/04 05:42:40;;;;;;;0.30;0.30;;;5.50;99.90;;;;;;5074306;28;20434;-84
2023/02/04 05:45:09;;;;;;;0.30;0.30;;;5.50;99.90;;;;;;5074223;28;20452;-84
2023/02/04 05:47:35;;;;;;;0.60;0.40;;;5.50;99.90;;;;;;5074136;28;20449;-84
2023/02/04 05:50:05;;;;;;;0.37;0.30;;;5.50;99.90;;;;;;5074158;28;20456;-84
2023/02/04 05:52:31;;;;;;;0.40;0.33;;;5.50;99.90;;;;;;5074092;28;20450;-84
2023/02/04 05:54:58;;;;;;;1.17;0.90;;;5.50;99.90;;;;;;5074013;28;20462;-84
2023/02/04 05:57:25;;;;;;;0.53;0.53;;;5.50;99.90;;;;;;5073098;28;20478;-84
2023/02/04 05:59:51;;;;;;;3.53;0.73;;;5.50;99.90;;;;;;5073654;28;20453;-84
2023/02/04 06:02:18;;;;;;;0.30;0.30;;;5.40;99.90;;;;;;5073893;28;20449;-84
2023/02/04 06:04:45;;;;;;;0.40;0.40;;;5.50;99.90;;;;;;5073556;28;20450;-84
2023/02/04 06:07:13;;;;;;;0.30;0.30;;;5.50;99.90;;;;;;5073789;28;20851;-84
2023/02/04 06:09:39;;;;;;;0.40;0.30;;;5.50;99.90;;;;;;5073817;28;20449;-84
2023/02/04 06:12:06;;;;;;;0.30;0.30;;;5.50;99.90;;;;;;5073790;28;20458;-84
2023/02/04 06:14:33;;;;;;;0.30;0.20;;;5.50;99.90;;;;;;5073754;28;20450;-84
2023/02/04 06:16:59;;;;;;;0.40;0.30;;;5.50;99.90;;;;;;5073609;28;20522;-84
2023/02/04 06:19:26;;;;;;;0.30;0.30;;;5.50;99.90;;;;;;5073685;28;20456;-84
2023/02/04 06:21:53;;;;;;;0.30;0.20;;;5.50;99.90;;;;;;5073677;28;20450;-84
2023/02/04 06:24:21;;;;;;;0.40;0.30;;;5.50;99.90;;;;;;5073629;28;20446;-84
2023/02/04 06:26:47;;;;;;;0.30;0.20;;;5.50;99.90;;;;;;5073503;28;20465;-84
2023/02/04 06:29:14;;;;;;;0.50;0.50;;;5.50;99.90;;;;;;5073560;28;20468;-84
2023/02/04 06:31:41;;;;;;;0.50;0.40;;;5.50;99.90;;;;;;5073524;28;20448;-84
2023/02/04 06:34:07;;;;;;;0.30;0.30;;;5.40;99.90;;;;;;5073498;28;20832;-84
2023/02/04 06:36:34;;;;;;;0.30;0.27;;;5.40;99.90;;;;;;5072997;28;20496;-84
2023/02/04 06:39:01;;;;;;;0.70;0.67;;;5.40;99.90;;;;;;5073331;28;20485;-85
2023/02/04 06:41:29;;;;;;;0.60;0.30;;;5.40;99.90;;;;;;5073434;28;20930;-84
2023/02/04 06:43:55;;;;;;;0.73;0.53;;;5.40;99.90;;;;;;5073191;28;20438;-84
2023/02/04 06:46:22;;;;;;;0.30;0.20;;;5.40;99.90;;;;;;5073309;28;20477;-83
2023/02/04 06:48:49;;;;;;;0.30;0.30;;;5.40;99.90;;;;;;5073040;28;20449;-84
2023/02/04 06:51:15;;;;;;;0.30;0.30;;;5.40;99.90;;;;;;5073071;28;20445;-84
2023/02/04 06:53:44;;;;;;;0.30;0.23;;;5.40;99.90;;;;;;5072969;28;20449;-84
2023/02/04 06:56:11;;;;;;;1.00;0.53;;;5.40;99.90;;;;;;5073221;28;20552;-84
2023/02/04 06:58:39;;;;;;;0.43;0.40;;;5.40;99.90;;;;;;5073148;28;20485;-84
2023/02/04 07:01:06;;;;;;;0.40;0.37;;;5.40;99.90;;;;;;5072900;28;20510;-84
2023/02/04 07:03:34;;;;;;;1.80;0.97;;;5.40;99.90;;;;;;5073177;28;20457;-84
2023/02/04 07:06:00;;;;;;;0.37;0.30;;;5.40;99.90;;;;;;5072816;28;20989;-84
2023/02/04 07:08:27;;;;;;;0.60;0.50;;;5.40;99.90;;;;;;5073364;28;21034;-83
2023/02/04 07:10:54;;;;;;;0.33;0.30;;;5.40;99.90;;;;;;5077180;28;20449;-83
2023/02/04 07:13:20;;;;;;;1.33;0.40;;;5.40;99.90;;;;;;5077161;28;20449;-83
2023/02/04 07:15:48;;;;;;;0.40;0.30;;;5.40;99.90;;;;;;5077043;28;20500;-83
2023/02/04 07:18:15;;;;;;;0.30;0.30;;;5.40;99.90;;;;;;5076959;28;20530;-83
2023/02/04 07:20:42;;;;;;;0.40;0.40;;;5.40;99.90;;;;;;5076961;28;20449;-83
2023/02/04 07:23:08;;;;;;;1.33;0.90;;;5.40;99.90;;;;;;5076915;28;20522;-83
2023/02/04 07:25:35;;;;;;;0.40;0.30;;;5.40;99.90;;;;;;5076824;28;20469;-83
2023/02/04 07:28:04;;;;;;;1.30;0.87;;;5.40;99.90;;;;;;5076817;28;20441;-83
2023/02/04 07:30:31;;;;;;;0.70;0.30;;;5.40;99.90;;;;;;5076778;28;20485;-83
2023/02/04 07:32:59;;;;;;;0.40;0.40;;;5.40;99.90;;;;;;5076749;28;20507;-83
2023/02/04 07:35:25;;;;;;;0.70;0.43;;;5.40;99.90;;;;;;5076382;28;20477;-83
2023/02/04 07:37:52;;;;;;;1.07;0.73;;;5.40;99.90;;;;;;5076570;28;20481;-83
2023/02/04 07:40:20;;;;;;;0.93;0.70;;;5.50;99.90;;;;;;5076597;28;20448;-83
2023/02/04 07:42:47;;;;;;;0.60;0.40;;;5.50;99.90;;;;;;5076569;28;20449;-83
2023/02/04 07:45:14;;;;;;;2.10;0.50;;;5.40;99.90;;;;;;5076430;28;20449;-83
2023/02/04 07:47:40;;;;;;;0.40;0.30;;;5.50;99.90;;;;;;5076463;28;20445;-83
2023/02/04 07:50:09;;;;;;;3.47;0.80;;;5.50;99.90;;;;;;5076415;28;20449;-83
2023/02/04 07:52:35;;;;;;;0.30;0.30;;;5.40;99.90;;;;;;5076414;28;20450;-83
2023/02/04 07:55:02;;;;;;;0.43;0.40;;;5.40;99.90;;;;;;5076345;28;20494;-83
2023/02/04 07:57:29;;;;;;;0.73;0.73;;;5.40;99.90;;;;;;5076138;28;20511;-83
2023/02/04 07:59:55;;;;;;;1.47;0.50;;;5.40;99.90;;;;;;5076239;28;20471;-83
2023/02/04 08:02:22;;;;;;;0.73;0.30;;;5.40;99.90;;;;;;5076203;28;20445;-83
2023/02/04 08:04:49;;;;;;;1.67;0.47;;;5.50;99.90;;;;;;5076179;28;20445;-83
2023/02/04 08:07:17;;;;;;;0.60;0.50;;;5.50;99.90;;;;;;5076088;28;20468;-83
2023/02/04 08:09:44;;;;;;;0.37;0.37;;;5.60;99.90;;;;;;5076166;28;20433;-84
2023/02/04 08:12:10;;;;;;;0.83;0.40;;;5.60;99.90;;;;;;5075753;28;20933;-84
2023/02/04 08:14:37;;;;;;;6.00;0.60;;;5.60;99.90;;;;;;5075973;28;20441;-84
2023/02/04 08:17:04;;;;;;;0.40;0.30;;;5.70;99.90;;;;;;5075903;28;20473;-84
2023/02/04 08:19:30;;;;;;;0.30;0.30;;;5.70;99.90;;;;;;5075566;28;20534;-84
2023/02/04 08:21:57;;;;;;;0.40;0.40;;;5.90;99.90;;;;;;5075080;28;20510;-84
2023/02/04 08:24:25;;;;;;;1.20;0.60;;;6.00;99.90;;;;;;5075801;28;20465;-84
2023/02/04 08:26:52;;;;;;;0.80;0.40;;;6.00;99.90;;;;;;5075727;28;20466;-84
2023/02/04 08:29:20;;;;;;;2.13;0.50;;;6.10;99.90;;;;;;5075752;28;20441;-84
2023/02/04 08:31:46;;;;;;;0.50;0.50;;;6.10;99.90;;;;;;5075646;28;20503;-84
2023/02/04 08:34:13;;;;;;;0.40;0.40;;;6.20;99.90;;;;;;5075646;28;20449;-84
2023/02/04 08:36:40;;;;;;;0.30;0.30;;;6.20;99.90;;;;;;5075031;28;20994;-84
2023/02/04 08:39:06;;;;;;;0.53;0.43;;;6.30;99.90;;;;;;5075106;28;20485;-84
2023/02/04 08:41:34;;;;;;;0.30;0.30;;;6.40;99.90;;;;;;5075535;28;20453;-84
2023/02/04 08:44:01;;;;;;;1.17;0.40;;;6.50;99.90;;;;;;5075194;28;20446;-84
2023/02/04 08:46:28;;;;;;;0.70;0.33;;;6.50;99.90;;;;;;5075467;28;20466;-84
2023/02/04 08:48:55;;;;;;;0.63;0.30;;;6.50;99.90;;;;;;5075484;28;20445;-84
2023/02/04 08:51:22;;;;;;;0.80;0.67;;;6.60;99.90;;;;;;5075018;28;20952;-84
2023/02/04 08:53:49;;;;;;;18.03;0.83;;;6.60;99.90;;;;;;5075326;28;20449;-84
2023/02/04 08:56:19;;;;;;;0.33;0.30;;;6.50;99.90;;;;;;5074824;28;20465;-84
2023/02/04 08:58:47;;;;;;;0.40;0.40;;;6.50;99.90;;;;;;5075152;28;20894;-84
2023/02/04 09:01:14;;;;;;;0.40;0.40;;;6.50;99.90;;;;;;5075137;28;20445;-84
2023/02/04 09:03:41;;;;;;;1.73;1.03;;;6.50;99.90;;;;;;5075093;28;20452;-84
2023/02/04 09:06:08;;;;;;;0.90;0.90;;;6.60;99.90;;;;;;5075025;28;20464;-84
2023/02/04 09:08:35;;;;;;;0.50;0.50;;;6.70;99.90;;;;;;5074949;28;20478;-84
2023/02/04 09:11:03;;;;;;;1.03;0.67;;;6.80;99.90;;;;;;5074913;28;20449;-84
2023/02/04 09:13:30;;;;;;;0.93;0.93;;;6.90;99.90;;;;;;5074846;28;20553;-84
2023/02/04 09:15:58;;;;;;;1.80;0.70;;;6.90;99.90;;;;;;5074807;28;20466;-84
2023/02/04 09:18:25;;;;;;;0.40;0.30;;;6.90;99.90;;;;;;5074400;28;20847;-84
2023/02/04 09:20:52;;;;;;;0.60;0.60;;;7.10;99.90;;;;;;5074454;28;20446;-84
2023/02/04 09:23:20;;;;;;;1.13;0.87;;;7.20;99.90;;;;;;5074511;28;20948;-84
2023/02/04 09:25:46;;;;;;;0.50;0.50;;;7.40;99.90;;;;;;5074257;28;20512;-84
2023/02/04 09:28:15;;;;;;;1.20;0.47;;;7.60;99.90;;;;;;5074587;28;20448;-84
2023/02/04 09:30:44;;;;;;;0.50;0.50;;;8.10;99.90;;;;;;5074500;28;20456;-84
2023/02/04 09:33:13;;;;;;;0.77;0.40;;;8.90;99.90;;;;;;5074396;28;20445;-84
2023/02/04 09:35:40;;;;;;;0.80;0.50;;;9.80;99.90;;;;;;5074035;28;20477;-84
2023/02/04 09:38:07;;;;;;;1.00;0.70;;;10.20;99.90;;;;;;5074274;28;20783;-84
2023/02/04 09:40:36;;;;;;;2.03;0.40;;;10.30;99.90;;;;;;5075007;28;20450;-84
2023/02/04 09:43:05;;;;;;;1.63;0.47;;;10.20;99.90;;;;;;5073924;28;20893;-84
2023/02/04 09:45:34;;;;;;;0.40;0.30;;;10.00;99.90;;;;;;5074177;28;20469;-84
2023/02/04 09:48:04;;;;;;;0.47;0.33;;;9.70;99.90;;;;;;5074169;28;20468;-84
2023/02/04 09:50:33;;;;;;;1.40;0.37;;;9.50;99.90;;;;;;5074204;28;20446;-87
2023/02/04 09:53:03;;;;;;;0.40;0.40;;;9.20;99.90;;;;;;5074152;28;20450;-84
2023/02/04 09:55:32;;;;;;;0.40;0.37;;;8.90;99.90;;;;;;5074037;28;20449;-84
2023/02/04 09:58:00;;;;;;;1.07;0.60;;;8.70;99.90;;;;;;5074004;28;20433;-84
2023/02/04 10:00:29;;;;;;;0.50;0.40;;;8.50;99.90;;;;;;5073983;28;20503;-84
2023/02/04 10:02:58;;;;;;;0.30;0.30;;;8.40;99.90;;;;;;5073961;28;20476;-85
2023/02/04 10:05:30;;;;;;;0.50;0.50;;;8.20;99.90;;;;;;5073789;28;20454;-85
2023/02/04 10:07:59;;;;;;;0.97;0.87;;;8.10;99.90;;;;;;5073898;28;20441;-84
2023/02/04 10:10:27;;;;;;;3.47;0.83;;;8.10;99.90;;;;;;5073784;28;20452;-84
2023/02/04 10:12:57;;;;;;;0.40;0.40;;;8.20;99.90;;;;;;5073754;28;20819;-85
2023/02/04 10:15:24;;;;;;;0.40;0.40;;;8.40;99.90;;;;;;5073413;28;20827;-85
2023/02/04 10:17:54;;;;;;;0.40;0.33;;;8.50;99.90;;;;;;5073700;28;20442;-85
2023/02/04 10:20:23;;;;;;;0.40;0.30;;;8.50;99.90;;;;;;5073602;28;20481;-85
2023/02/04 10:22:52;;;;;;;1.73;0.50;;;8.60;99.90;;;;;;5073604;28;20464;-85
2023/02/04 10:25:22;;;;;;;0.37;0.30;;;9.00;99.90;;;;;;5074397;28;20434;-84
2023/02/04 10:27:50;;;;;;;0.70;0.30;;;9.80;99.90;;;;;;5073573;28;20453;-84
2023/02/04 10:30:20;;;;;;;0.30;0.30;;;10.50;99.90;;;;;;5073612;28;20422;-84
2023/02/04 10:32:47;;;;;;;0.30;0.20;;;10.70;99.90;;;;;;5073523;28;20445;-84
2023/02/04 10:35:16;;;;;;;0.30;0.30;;;10.60;99.90;;;;;;5072841;28;20481;-84
2023/02/04 10:37:43;;;;;;;0.70;0.70;;;10.50;99.90;;;;;;5073573;28;20430;-84
2023/02/04 10:40:27;;;;;;;0.40;0.40;;;10.20;99.90;;;;;;5073457;28;20474;-84
2023/02/04 10:42:54;;;;;;;1.10;0.30;;;9.90;99.90;;;;;;5073134;28;20932;-84
2023/02/04 10:45:25;;;;;;;0.40;0.40;;;9.60;99.90;;;;;;5072648;28;20992;-84
2023/02/04 10:47:53;;;;;;;3.03;1.83;;;9.20;99.90;;;;;;5073373;28;20437;-85
2023/02/04 10:50:22;;;;;;;0.30;0.30;;;8.90;99.90;;;;;;5073180;28;20445;-84
2023/02/04 10:52:51;;;;;;;0.50;0.40;;;8.80;99.90;;;;;;5073322;28;20784;-85
2023/02/04 10:55:20;;;;;;;0.40;0.40;;;8.80;99.90;;;;;;5073283;28;20449;-84
2023/02/04 10:57:50;;;;;;;0.77;0.50;;;8.70;99.90;;;;;;5073288;28;20492;-79
2023/02/04 11:00:20;;;;;;;0.70;0.50;;;8.70;99.90;;;;;;5073203;28;20472;-79
2023/02/04 11:02:52;;;;;;;0.40;0.37;;;8.60;99.90;;;;;;5073183;28;20456;-79
2023/02/04 11:05:22;;;;;;;0.43;0.43;;;8.70;99.90;;;;;;5072815;28;20932;-78
2023/02/04 11:07:49;;;;;;;0.70;0.30;;;8.70;99.90;;;;;;5073177;28;20452;-79
2023/02/04 11:10:19;;;;;;;0.33;0.33;;;8.50;99.90;;;;;;5072804;28;20945;-79
2023/02/04 11:12:59;;;;;;;0.40;0.37;;;8.50;99.90;;;;;;5073006;28;20870;-79
2023/02/04 11:15:45;;;;;;;0.40;0.30;;;8.40;99.90;;;;;;5073168;28;20428;-78
2023/02/04 11:18:14;;;;;;;0.30;0.20;;;8.30;99.90;;;;;;5073046;28;20835;-79
2023/02/04 11:20:41;;;;;;;0.50;0.50;;;8.20;99.90;;;;;;5072904;28;20465;-80
2023/02/04 11:23:16;;;;;;;0.40;0.40;;;8.30;99.90;;;;;;5072895;28;20449;-78
2023/02/04 11:25:42;;;;;;;0.40;0.40;;;8.40;99.90;;;;;;5072824;28;20484;-79
2023/02/04 11:28:25;;;;;;;0.30;0.30;;;8.40;99.90;;;;;;5072650;28;20452;-79
2023/02/04 11:31:00;;;;;;;1.80;0.60;;;8.40;99.90;;;;;;5072882;28;20425;-79
2023/02/04 11:33:38;;;;;;;0.40;0.40;;;8.40;99.90;;;;;;5072907;28;20807;-78
2023/02/04 11:36:06;;;;;;;0.30;0.30;;;8.40;99.90;;;;;;5072393;28;20511;-78
2023/02/04 11:38:34;;;;;;;0.77;0.40;;;8.50;99.90;;;;;;5072749;28;20541;-79
2023/02/04 11:41:01;;;;;;;0.70;0.70;;;8.60;99.90;;;;;;5072767;28;20449;-78
2023/02/04 11:43:33;;;;;;;0.50;0.40;;;8.80;99.90;;;;;;5072466;28;20449;-78
2023/02/04 11:46:04;;;;;;;0.30;0.20;;;8.90;99.90;;;;;;5072744;28;20485;-78
2023/02/04 11:48:32;;;;;;;0.60;0.60;;;8.90;99.90;;;;;;5072859;28;20437;-78
2023/02/04 11:51:00;;;;;;;0.30;0.30;;;9.00;99.90;;;;;;5072735;28;20528;-78
2023/02/04 11:53:30;;;;;;;0.50;0.40;;;8.90;99.90;;;;;;5072738;28;20449;-78
2023/02/04 11:55:56;;;;;;;3.70;0.67;;;8.80;99.90;;;;;;5073204;28;20461;-79
2023/02/04 11:58:24;;;;;;;0.40;0.27;;;8.60;99.90;;;;;;5076294;28;20441;-79
2023/02/04 12:00:53;;;;;;;1.20;0.43;;;8.60;99.90;;;;;;5076200;28;20489;-79
2023/02/04 12:03:23;;;;;;;0.77;0.40;;;8.60;99.90;;;;;;5076218;28;20449;-78
2023/02/04 12:05:53;;;;;;;0.70;0.40;;;8.50;99.90;;;;;;5076041;28;20469;-79
2023/02/04 12:08:35;;;;;;;2.23;0.50;;;8.40;99.90;;;;;;5076066;28;20449;-79
2023/02/04 12:11:07;;;;;;;2.00;1.00;;;8.40;99.90;;;;;;5073973;28;20450;-78
2023/02/04 12:13:34;;;;;;;0.50;0.40;;;8.20;99.90;;;;;;5075996;28;20525;-79
2023/02/04 12:16:04;;;;;;;0.30;0.30;;;8.20;99.90;;;;;;5075890;28;20472;-78
2023/02/04 12:18:33;;;;;;;0.50;0.50;;;8.20;99.90;;;;;;5076726;28;20422;-78
2023/02/04 12:21:01;;;;;;;0.30;0.30;;;8.20;99.90;;;;;;5075715;28;20485;-78
2023/02/04 12:23:29;;;;;;;0.30;0.30;;;8.10;99.90;;;;;;5075834;28;20445;-78
2023/02/04 12:25:56;;;;;;;1.03;0.57;;;8.10;99.90;;;;;;5075699;28;20521;-79
2023/02/04 12:28:23;;;;;;;0.40;0.30;;;8.20;99.90;;;;;;5075783;28;20457;-78
2023/02/04 12:30:50;;;;;;;0.30;0.30;;;8.20;99.90;;;;;;5075666;28;20450;-78
2023/02/04 12:33:18;;;;;;;0.47;0.47;;;8.20;99.90;;;;;;5075340;28;20452;-79
2023/02/04 12:35:45;;;;;;;0.30;0.30;;;8.00;99.90;;;;;;5075201;28;20489;-78
2023/02/04 12:38:11;;;;;;;1.10;1.00;;;7.90;99.90;;;;;;5075624;28;20456;-78
2023/02/04 12:40:38;;;;;;;0.40;0.30;;;7.90;99.90;;;;;;5075167;28;21000;-79
2023/02/04 12:43:06;;;;;;;0.63;0.50;;;8.00;99.90;;;;;;5075397;28;20446;-78
2023/02/04 12:45:33;;;;;;;0.50;0.40;;;8.10;99.90;;;;;;5075408;28;20520;-79
2023/02/04 12:48:00;;;;;;;0.40;0.30;;;8.10;99.90;;;;;;5075350;28;20823;-78
2023/02/04 12:50:28;;;;;;;0.40;0.30;;;8.10;99.90;;;;;;5075359;28;20442;-78
2023/02/04 12:52:57;;;;;;;0.30;0.30;;;8.10;99.90;;;;;;5075322;28;20452;-78
2023/02/04 12:55:26;;;;;;;0.40;0.30;;;8.10;99.90;;;;;;5075179;28;20477;-79
2023/02/04 12:57:53;;;;;;;0.40;0.33;;;8.20;99.90;;;;;;5075170;28;20452;-79
2023/02/04 13:00:21;;;;;;;0.40;0.40;;;8.40;99.90;;;;;;5074966;28;20489;-79